sensor_id;sensor_type;location;lat;lon;timestamp;temperature;humidity
13458;DHT22;6801;53.018;11.560;2023-02-22T00:00:33;8.70;86.30
13458;DHT22;6801;53.018;11.560;2023-02-22T00:03:09;8.70;86.30
13458;DHT22;6801;53.018;11.560;2023-02-22T00:05:38;8.70;86.30
13458;DHT22;6801;53.018;11.560;2023-02-22T00:08:06;8.70;86.30
13458;DHT22;6801;53.018;11.560;2023-02-22T00:10:34;8.70;86.30
13458;DHT22;6801;53.018;11.560;2023-02-22T00:13:05;8.70;86.30
13458;DHT22;6801;53.018;11.560;2023-02-22T00:15:32;8.60;86.30
13458;DHT22;6801;53.018;11.560;2023-02-22T00:18:02;8.60;86.30
13458;DHT22;6801;53.018;11.560;2023-02-22T00:20:29;8.60;86.30
13458;DHT22;6801;53.018;11.560;2023-02-22T00:22:57;8.60;86.30
13458;DHT22;6801;53.018;11.560;2023-02-22T00:25:26;8.60;86.30
13458;DHT22;6801;53.018;11.560;2023-02-22T00:27:53;8.60;86.30
13458;DHT22;6801;53.018;11.560;2023-02-22T00:30:23;8.60;86.30
13458;DHT22;6801;53.018;11.560;2023-02-22T00:32:53;8.60;86.30
13458;DHT22;6801;53.018;11.560;2023-02-22T00:35:22;8.60;86.30
13458;DHT22;6801;53.018;11.560;2023-02-22T00:37:51;8.60;86.30
13458;DHT22;6801;53.018;11.560;2023-02-22T00:40:21;8.60;86.40
13458;DHT22;6801;53.018;11.560;2023-02-22T00:42:49;8.60;86.30
13458;DHT22;6801;53.018;11.560;2023-02-22T00:45:19;8.50;86.30
13458;DHT22;6801;53.018;11.560;2023-02-22T00:47:46;8.50;86.30
13458;DHT22;6801;53.018;11.560;2023-02-22T00:50:14;8.50;86.40
13458;DHT22;6801;53.018;11.560;2023-02-22T00:52:42;8.50;86.40
13458;DHT22;6801;53.018;11.560;2023-02-22T00:55:14;8.50;86.40
13458;DHT22;6801;53.018;11.560;2023-02-22T00:57:42;8.50;86.50
13458;DHT22;6801;53.018;11.560;2023-02-22T01:00:15;8.50;86.50
13458;DHT22;6801;53.018;11.560;2023-02-22T01:02:43;8.50;86.50
13458;DHT22;6801;53.018;11.560;2023-02-22T01:05:13;8.50;86.50
13458;DHT22;6801;53.018;11.560;2023-02-22T01:07:41;8.50;86.50
13458;DHT22;6801;53.018;11.560;2023-02-22T01:10:08;8.50;86.50
13458;DHT22;6801;53.018;11.560;2023-02-22T01:12:36;8.50;86.50
13458;DHT22;6801;53.018;11.560;2023-02-22T01:15:07;8.50;86.50
13458;DHT22;6801;53.018;11.560;2023-02-22T01:17:35;8.50;86.60
13458;DHT22;6801;53.018;11.560;2023-02-22T01:20:03;8.50;86.50
13458;DHT22;6801;53.018;11.560;2023-02-22T01:22:34;8.50;86.50
13458;DHT22;6801;53.018;11.560;2023-02-22T01:25:02;8.50;86.50
13458;DHT22;6801;53.018;11.560;2023-02-22T01:27:31;8.40;86.50
13458;DHT22;6801;53.018;11.560;2023-02-22T01:29:58;8.40;86.50
13458;DHT22;6801;53.018;11.560;2023-02-22T01:32:27;8.40;86.50
13458;DHT22;6801;53.018;11.560;2023-02-22T01:34:55;8.40;86.50
13458;DHT22;6801;53.018;11.560;2023-02-22T01:37:21;8.40;86.50
13458;DHT22;6801;53.018;11.560;2023-02-22T01:39:48;8.40;86.50
13458;DHT22;6801;53.018;11.560;2023-02-22T01:42:16;8.40;86.60
13458;DHT22;6801;53.018;11.560;2023-02-22T01:44:43;8.40;86.60
13458;DHT22;6801;53.018;11.560;2023-02-22T01:47:10;8.40;86.50
13458;DHT22;6801;53.018;11.560;2023-02-22T01:49:40;8.40;86.50
13458;DHT22;6801;53.018;11.560;2023-02-22T01:52:13;8.40;86.60
13458;DHT22;6801;53.018;11.560;2023-02-22T01:54:43;8.40;86.60
13458;DHT22;6801;53.018;11.560;2023-02-22T01:57:22;8.40;86.60
13458;DHT22;6801;53.018;11.560;2023-02-22T01:59:52;8.30;86.60
13458;DHT22;6801;53.018;11.560;2023-02-22T02:02:21;8.40;86.50
13458;DHT22;6801;53.018;11.560;2023-02-22T02:04:55;8.40;86.60
13458;DHT22;6801;53.018;11.560;2023-02-22T02:07:25;8.40;86.60
13458;DHT22;6801;53.018;11.560;2023-02-22T02:09:57;8.30;86.50
13458;DHT22;6801;53.018;11.560;2023-02-22T02:12:25;8.40;86.60
13458;DHT22;6801;53.018;11.560;2023-02-22T02:15:10;8.30;86.60
13458;DHT22;6801;53.018;11.560;2023-02-22T02:17:41;8.30;86.60
13458;DHT22;6801;53.018;11.560;2023-02-22T02:20:16;8.30;86.60
13458;DHT22;6801;53.018;11.560;2023-02-22T02:22:47;8.30;86.60
13458;DHT22;6801;53.018;11.560;2023-02-22T02:29:01;8.30;86.70
13458;DHT22;6801;53.018;11.560;2023-02-22T02:32:10;8.30;86.70
13458;DHT22;6801;53.018;11.560;2023-02-22T02:34:48;8.30;86.60
13458;DHT22;6801;53.018;11.560;2023-02-22T02:37:21;8.30;86.60
13458;DHT22;6801;53.018;11.560;2023-02-22T02:39:56;8.30;86.60
13458;DHT22;6801;53.018;11.560;2023-02-22T02:42:28;8.30;86.70
13458;DHT22;6801;53.018;11.560;2023-02-22T02:45:04;8.30;86.70
13458;DHT22;6801;53.018;11.560;2023-02-22T02:47:39;8.20;86.70
13458;DHT22;6801;53.018;11.560;2023-02-22T02:50:10;8.20;86.70
13458;DHT22;6801;53.018;11.560;2023-02-22T02:52:40;8.30;86.80
13458;DHT22;6801;53.018;11.560;2023-02-22T02:55:08;8.20;86.70
13458;DHT22;6801;53.018;11.560;2023-02-22T02:57:36;8.20;86.70
13458;DHT22;6801;53.018;11.560;2023-02-22T03:00:07;8.20;86.70
13458;DHT22;6801;53.018;11.560;2023-02-22T03:02:57;8.20;86.80
13458;DHT22;6801;53.018;11.560;2023-02-22T03:05:40;8.20;86.80
13458;DHT22;6801;53.018;11.560;2023-02-22T03:08:14;8.20;86.80
13458;DHT22;6801;53.018;11.560;2023-02-22T03:10:50;8.20;86.80
13458;DHT22;6801;53.018;11.560;2023-02-22T03:13:29;8.20;86.80
13458;DHT22;6801;53.018;11.560;2023-02-22T03:16:10;8.20;86.80
13458;DHT22;6801;53.018;11.560;2023-02-22T03:18:48;8.20;86.80
13458;DHT22;6801;53.018;11.560;2023-02-22T03:21:22;8.20;86.80
13458;DHT22;6801;53.018;11.560;2023-02-22T03:23:59;8.20;86.80
13458;DHT22;6801;53.018;11.560;2023-02-22T03:26:36;8.20;86.80
13458;DHT22;6801;53.018;11.560;2023-02-22T03:29:08;8.10;86.80
13458;DHT22;6801;53.018;11.560;2023-02-22T03:31:39;8.10;86.80
13458;DHT22;6801;53.018;11.560;2023-02-22T03:34:11;8.10;86.80
13458;DHT22;6801;53.018;11.560;2023-02-22T03:36:40;8.10;86.80
13458;DHT22;6801;53.018;11.560;2023-02-22T03:39:12;8.10;86.80
13458;DHT22;6801;53.018;11.560;2023-02-22T03:41:44;8.10;86.70
13458;DHT22;6801;53.018;11.560;2023-02-22T03:44:21;8.10;86.70
13458;DHT22;6801;53.018;11.560;2023-02-22T03:46:53;8.10;86.70
13458;DHT22;6801;53.018;11.560;2023-02-22T03:49:31;8.10;86.80
13458;DHT22;6801;53.018;11.560;2023-02-22T03:52:00;8.10;86.80
13458;DHT22;6801;53.018;11.560;2023-02-22T03:54:30;8.10;86.80
13458;DHT22;6801;53.018;11.560;2023-02-22T03:57:02;8.10;86.90
13458;DHT22;6801;53.018;11.560;2023-02-22T03:59:35;8.10;86.80
13458;DHT22;6801;53.018;11.560;2023-02-22T04:02:04;8.10;86.80
13458;DHT22;6801;53.018;11.560;2023-02-22T04:04:33;8.10;86.80
13458;DHT22;6801;53.018;11.560;2023-02-22T04:07:00;8.10;86.80
13458;DHT22;6801;53.018;11.560;2023-02-22T04:09:28;8.10;86.80
13458;DHT22;6801;53.018;11.560;2023-02-22T04:11:55;8.10;86.90
13458;DHT22;6801;53.018;11.560;2023-02-22T04:14:22;8.10;86.80
13458;DHT22;6801;53.018;11.560;2023-02-22T04:16:49;8.10;86.80
13458;DHT22;6801;53.018;11.560;2023-02-22T04:19:16;8.10;86.80
13458;DHT22;6801;53.018;11.560;2023-02-22T04:21:44;8.10;86.90
13458;DHT22;6801;53.018;11.560;2023-02-22T04:24:18;8.10;86.90
13458;DHT22;6801;53.018;11.560;2023-02-22T04:26:46;8.00;86.90
13458;DHT22;6801;53.018;11.560;2023-02-22T04:29:14;8.00;86.90
13458;DHT22;6801;53.018;11.560;2023-02-22T04:31:43;8.00;86.90
13458;DHT22;6801;53.018;11.560;2023-02-22T04:34:10;8.10;86.90
13458;DHT22;6801;53.018;11.560;2023-02-22T04:36:39;8.00;86.80
13458;DHT22;6801;53.018;11.560;2023-02-22T04:39:10;8.00;86.90
13458;DHT22;6801;53.018;11.560;2023-02-22T04:41:37;8.00;86.90
13458;DHT22;6801;53.018;11.560;2023-02-22T04:44:05;8.00;86.90
13458;DHT22;6801;53.018;11.560;2023-02-22T04:46:33;8.00;86.80
13458;DHT22;6801;53.018;11.560;2023-02-22T04:49:01;8.00;86.90
13458;DHT22;6801;53.018;11.560;2023-02-22T04:51:30;8.00;86.90
13458;DHT22;6801;53.018;11.560;2023-02-22T04:54:21;8.00;86.90
13458;DHT22;6801;53.018;11.560;2023-02-22T04:56:48;8.00;86.90
13458;DHT22;6801;53.018;11.560;2023-02-22T04:59:15;8.00;86.90
13458;DHT22;6801;53.018;11.560;2023-02-22T05:01:44;8.00;86.90
13458;DHT22;6801;53.018;11.560;2023-02-22T05:04:11;8.00;87.00
13458;DHT22;6801;53.018;11.560;2023-02-22T05:06:38;8.00;87.00
13458;DHT22;6801;53.018;11.560;2023-02-22T05:09:05;8.00;87.00
13458;DHT22;6801;53.018;11.560;2023-02-22T05:11:33;8.00;87.10
13458;DHT22;6801;53.018;11.560;2023-02-22T05:14:00;8.00;87.00
13458;DHT22;6801;53.018;11.560;2023-02-22T05:16:27;8.00;87.10
13458;DHT22;6801;53.018;11.560;2023-02-22T05:18:54;8.00;87.00
13458;DHT22;6801;53.018;11.560;2023-02-22T05:21:21;8.00;87.00
13458;DHT22;6801;53.018;11.560;2023-02-22T05:23:48;8.00;87.00
13458;DHT22;6801;53.018;11.560;2023-02-22T05:26:15;8.00;87.00
13458;DHT22;6801;53.018;11.560;2023-02-22T05:28:45;8.00;87.10
13458;DHT22;6801;53.018;11.560;2023-02-22T05:31:12;7.90;87.10
13458;DHT22;6801;53.018;11.560;2023-02-22T05:33:39;7.90;87.10
13458;DHT22;6801;53.018;11.560;2023-02-22T05:36:07;8.00;87.10
13458;DHT22;6801;53.018;11.560;2023-02-22T05:38:35;8.00;87.00
13458;DHT22;6801;53.018;11.560;2023-02-22T05:41:07;8.00;87.00
13458;DHT22;6801;53.018;11.560;2023-02-22T05:43:35;8.00;87.10
13458;DHT22;6801;53.018;11.560;2023-02-22T05:46:03;8.00;87.10
13458;DHT22;6801;53.018;11.560;2023-02-22T05:48:30;8.00;87.10
13458;DHT22;6801;53.018;11.560;2023-02-22T05:50:57;8.00;87.10
13458;DHT22;6801;53.018;11.560;2023-02-22T05:53:24;8.00;87.10
13458;DHT22;6801;53.018;11.560;2023-02-22T05:55:52;8.00;87.20
13458;DHT22;6801;53.018;11.560;2023-02-22T05:58:19;8.00;87.20
13458;DHT22;6801;53.018;11.560;2023-02-22T06:00:46;8.00;87.20
13458;DHT22;6801;53.018;11.560;2023-02-22T06:03:14;8.00;87.20
13458;DHT22;6801;53.018;11.560;2023-02-22T06:05:41;8.00;87.30
13458;DHT22;6801;53.018;11.560;2023-02-22T06:08:08;8.00;87.30
13458;DHT22;6801;53.018;11.560;2023-02-22T06:10:36;8.00;87.30
13458;DHT22;6801;53.018;11.560;2023-02-22T06:13:04;8.00;87.30
13458;DHT22;6801;53.018;11.560;2023-02-22T06:15:31;8.00;87.30
13458;DHT22;6801;53.018;11.560;2023-02-22T06:17:58;7.90;87.20
13458;DHT22;6801;53.018;11.560;2023-02-22T06:20:28;8.00;87.30
13458;DHT22;6801;53.018;11.560;2023-02-22T06:22:56;8.00;87.30
13458;DHT22;6801;53.018;11.560;2023-02-22T06:25:25;8.00;87.30
13458;DHT22;6801;53.018;11.560;2023-02-22T06:27:53;8.00;87.30
13458;DHT22;6801;53.018;11.560;2023-02-22T06:30:22;7.90;87.40
13458;DHT22;6801;53.018;11.560;2023-02-22T06:32:49;7.90;87.40
13458;DHT22;6801;53.018;11.560;2023-02-22T06:35:17;8.00;87.40
13458;DHT22;6801;53.018;11.560;2023-02-22T06:37:46;8.00;87.40
13458;DHT22;6801;53.018;11.560;2023-02-22T06:40:14;8.00;87.40
13458;DHT22;6801;53.018;11.560;2023-02-22T06:42:41;8.00;87.40
13458;DHT22;6801;53.018;11.560;2023-02-22T06:45:08;8.00;87.40
13458;DHT22;6801;53.018;11.560;2023-02-22T06:47:38;8.00;87.50
13458;DHT22;6801;53.018;11.560;2023-02-22T06:50:07;8.00;87.40
13458;DHT22;6801;53.018;11.560;2023-02-22T06:52:34;7.90;87.50
13458;DHT22;6801;53.018;11.560;2023-02-22T06:55:02;8.00;87.50
13458;DHT22;6801;53.018;11.560;2023-02-22T06:57:29;8.00;87.50
13458;DHT22;6801;53.018;11.560;2023-02-22T06:59:56;8.00;87.50
13458;DHT22;6801;53.018;11.560;2023-02-22T07:02:23;8.00;87.50
13458;DHT22;6801;53.018;11.560;2023-02-22T07:04:50;8.00;87.50
13458;DHT22;6801;53.018;11.560;2023-02-22T07:07:20;8.00;87.50
13458;DHT22;6801;53.018;11.560;2023-02-22T07:09:47;8.00;87.50
13458;DHT22;6801;53.018;11.560;2023-02-22T07:12:16;8.00;87.60
13458;DHT22;6801;53.018;11.560;2023-02-22T07:14:42;8.00;87.60
13458;DHT22;6801;53.018;11.560;2023-02-22T07:17:09;8.10;87.60
13458;DHT22;6801;53.018;11.560;2023-02-22T07:19:37;8.10;87.60
13458;DHT22;6801;53.018;11.560;2023-02-22T07:22:04;8.10;87.60
13458;DHT22;6801;53.018;11.560;2023-02-22T07:24:30;8.00;87.60
13458;DHT22;6801;53.018;11.560;2023-02-22T07:27:00;8.10;87.50
13458;DHT22;6801;53.018;11.560;2023-02-22T07:29:28;8.10;87.50
13458;DHT22;6801;53.018;11.560;2023-02-22T07:31:56;8.10;87.50
13458;DHT22;6801;53.018;11.560;2023-02-22T07:34:23;8.10;87.60
13458;DHT22;6801;53.018;11.560;2023-02-22T07:36:50;8.10;87.70
13458;DHT22;6801;53.018;11.560;2023-02-22T07:39:17;8.20;87.50
13458;DHT22;6801;53.018;11.560;2023-02-22T07:41:45;8.20;87.60
13458;DHT22;6801;53.018;11.560;2023-02-22T07:44:21;8.20;87.70
13458;DHT22;6801;53.018;11.560;2023-02-22T07:46:50;8.20;87.70
13458;DHT22;6801;53.018;11.560;2023-02-22T07:49:17;8.20;87.80
13458;DHT22;6801;53.018;11.560;2023-02-22T07:51:44;8.20;87.90
13458;DHT22;6801;53.018;11.560;2023-02-22T07:54:12;8.30;87.90
13458;DHT22;6801;53.018;11.560;2023-02-22T07:56:44;8.20;87.80
13458;DHT22;6801;53.018;11.560;2023-02-22T07:59:11;8.20;87.80
13458;DHT22;6801;53.018;11.560;2023-02-22T08:01:38;8.20;88.00
13458;DHT22;6801;53.018;11.560;2023-02-22T08:04:06;8.30;87.90
13458;DHT22;6801;53.018;11.560;2023-02-22T08:06:33;8.30;88.00
13458;DHT22;6801;53.018;11.560;2023-02-22T08:09:00;8.30;87.90
13458;DHT22;6801;53.018;11.560;2023-02-22T08:11:27;8.20;88.00
13458;DHT22;6801;53.018;11.560;2023-02-22T08:13:54;8.20;88.10
13458;DHT22;6801;53.018;11.560;2023-02-22T08:16:21;8.20;88.20
13458;DHT22;6801;53.018;11.560;2023-02-22T08:18:48;8.20;88.30
13458;DHT22;6801;53.018;11.560;2023-02-22T08:21:16;8.20;88.20
13458;DHT22;6801;53.018;11.560;2023-02-22T08:23:43;8.30;88.10
13458;DHT22;6801;53.018;11.560;2023-02-22T08:26:11;8.30;88.00
13458;DHT22;6801;53.018;11.560;2023-02-22T08:28:40;8.30;88.10
13458;DHT22;6801;53.018;11.560;2023-02-22T08:31:07;8.30;88.10
13458;DHT22;6801;53.018;11.560;2023-02-22T08:33:35;8.30;88.20
13458;DHT22;6801;53.018;11.560;2023-02-22T08:36:02;8.30;88.20
13458;DHT22;6801;53.018;11.560;2023-02-22T08:38:31;8.30;88.30
13458;DHT22;6801;53.018;11.560;2023-02-22T08:40:58;8.30;88.30
13458;DHT22;6801;53.018;11.560;2023-02-22T08:43:25;8.30;88.20
13458;DHT22;6801;53.018;11.560;2023-02-22T08:45:53;8.30;88.20
13458;DHT22;6801;53.018;11.560;2023-02-22T08:48:20;8.40;88.10
13458;DHT22;6801;53.018;11.560;2023-02-22T08:50:47;8.40;88.10
13458;DHT22;6801;53.018;11.560;2023-02-22T08:53:15;8.30;88.10
13458;DHT22;6801;53.018;11.560;2023-02-22T08:55:44;8.40;88.20
13458;DHT22;6801;53.018;11.560;2023-02-22T08:58:11;8.40;88.10
13458;DHT22;6801;53.018;11.560;2023-02-22T09:00:39;8.50;88.00
13458;DHT22;6801;53.018;11.560;2023-02-22T09:03:09;8.40;87.90
13458;DHT22;6801;53.018;11.560;2023-02-22T09:05:38;8.40;88.00
13458;DHT22;6801;53.018;11.560;2023-02-22T09:08:05;8.40;88.00
13458;DHT22;6801;53.018;11.560;2023-02-22T09:10:33;8.50;88.00
13458;DHT22;6801;53.018;11.560;2023-02-22T09:13:01;8.50;88.10
13458;DHT22;6801;53.018;11.560;2023-02-22T09:15:30;8.50;88.10
13458;DHT22;6801;53.018;11.560;2023-02-22T09:17:58;8.50;88.10
13458;DHT22;6801;53.018;11.560;2023-02-22T09:20:26;8.50;87.80
13458;DHT22;6801;53.018;11.560;2023-02-22T09:22:53;8.50;87.80
13458;DHT22;6801;53.018;11.560;2023-02-22T09:25:21;8.50;87.90
13458;DHT22;6801;53.018;11.560;2023-02-22T09:27:49;8.50;88.00
13458;DHT22;6801;53.018;11.560;2023-02-22T09:30:21;8.60;87.80
13458;DHT22;6801;53.018;11.560;2023-02-22T09:32:51;8.60;87.60
13458;DHT22;6801;53.018;11.560;2023-02-22T09:35:18;8.60;87.80
13458;DHT22;6801;53.018;11.560;2023-02-22T09:37:52;8.60;87.90
13458;DHT22;6801;53.018;11.560;2023-02-22T09:40:20;8.70;87.70
13458;DHT22;6801;53.018;11.560;2023-02-22T09:42:58;8.80;87.70
13458;DHT22;6801;53.018;11.560;2023-02-22T09:45:31;8.70;87.90
13458;DHT22;6801;53.018;11.560;2023-02-22T09:48:05;8.70;87.90
13458;DHT22;6801;53.018;11.560;2023-02-22T09:50:36;8.80;87.90
13458;DHT22;6801;53.018;11.560;2023-02-22T09:53:14;8.80;87.80
13458;DHT22;6801;53.018;11.560;2023-02-22T09:55:50;8.80;88.00
13458;DHT22;6801;53.018;11.560;2023-02-22T09:58:20;8.90;88.00
13458;DHT22;6801;53.018;11.560;2023-02-22T10:00:51;9.00;87.80
13458;DHT22;6801;53.018;11.560;2023-02-22T10:03:26;9.00;87.80
13458;DHT22;6801;53.018;11.560;2023-02-22T10:05:59;9.00;87.80
13458;DHT22;6801;53.018;11.560;2023-02-22T10:08:31;9.00;87.80
13458;DHT22;6801;53.018;11.560;2023-02-22T10:11:07;9.00;88.00
13458;DHT22;6801;53.018;11.560;2023-02-22T10:13:42;9.00;88.10
13458;DHT22;6801;53.018;11.560;2023-02-22T10:16:22;9.00;88.10
13458;DHT22;6801;53.018;11.560;2023-02-22T10:19:09;9.00;88.20
13458;DHT22;6801;53.018;11.560;2023-02-22T10:21:51;9.10;88.20
13458;DHT22;6801;53.018;11.560;2023-02-22T10:24:33;9.10;88.10
13458;DHT22;6801;53.018;11.560;2023-02-22T10:27:04;9.10;88.10
13458;DHT22;6801;53.018;11.560;2023-02-22T10:29:36;9.10;88.10
13458;DHT22;6801;53.018;11.560;2023-02-22T10:32:14;9.20;88.20
13458;DHT22;6801;53.018;11.560;2023-02-22T10:34:45;9.20;88.20
13458;DHT22;6801;53.018;11.560;2023-02-22T10:37:24;9.30;88.00
13458;DHT22;6801;53.018;11.560;2023-02-22T10:39:56;9.30;87.90
13458;DHT22;6801;53.018;11.560;2023-02-22T10:42:26;9.40;87.60
13458;DHT22;6801;53.018;11.560;2023-02-22T10:44:53;9.40;87.80
13458;DHT22;6801;53.018;11.560;2023-02-22T10:47:22;9.40;87.80
13458;DHT22;6801;53.018;11.560;2023-02-22T10:49:52;9.50;87.60
13458;DHT22;6801;53.018;11.560;2023-02-22T10:52:24;9.40;87.70
13458;DHT22;6801;53.018;11.560;2023-02-22T10:54:54;9.40;87.80
13458;DHT22;6801;53.018;11.560;2023-02-22T10:57:23;9.40;87.90
13458;DHT22;6801;53.018;11.560;2023-02-22T10:59:51;9.50;87.90
13458;DHT22;6801;53.018;11.560;2023-02-22T11:02:28;9.40;87.90
13458;DHT22;6801;53.018;11.560;2023-02-22T11:04:57;9.50;87.90
13458;DHT22;6801;53.018;11.560;2023-02-22T11:07:26;9.50;87.90
13458;DHT22;6801;53.018;11.560;2023-02-22T11:09:55;9.50;87.90
13458;DHT22;6801;53.018;11.560;2023-02-22T11:12:28;9.50;87.90
13458;DHT22;6801;53.018;11.560;2023-02-22T11:14:56;9.50;87.90
13458;DHT22;6801;53.018;11.560;2023-02-22T11:17:29;9.50;88.00
13458;DHT22;6801;53.018;11.560;2023-02-22T11:19:57;9.60;87.70
13458;DHT22;6801;53.018;11.560;2023-02-22T11:22:26;9.60;87.80
13458;DHT22;6801;53.018;11.560;2023-02-22T11:24:58;9.60;87.80
13458;DHT22;6801;53.018;11.560;2023-02-22T11:27:30;9.60;87.80
13458;DHT22;6801;53.018;11.560;2023-02-22T11:30:10;9.60;87.90
13458;DHT22;6801;53.018;11.560;2023-02-22T11:32:44;9.70;87.80
13458;DHT22;6801;53.018;11.560;2023-02-22T11:35:34;9.70;87.80
13458;DHT22;6801;53.018;11.560;2023-02-22T11:38:15;9.80;87.90
13458;DHT22;6801;53.018;11.560;2023-02-22T11:40:43;9.80;88.00
13458;DHT22;6801;53.018;11.560;2023-02-22T11:43:14;10.00;87.60
13458;DHT22;6801;53.018;11.560;2023-02-22T11:45:57;10.00;87.70
13458;DHT22;6801;53.018;11.560;2023-02-22T11:48:31;10.00;87.70
13458;DHT22;6801;53.018;11.560;2023-02-22T11:51:18;10.00;87.80
13458;DHT22;6801;53.018;11.560;2023-02-22T11:54:11;10.00;87.80
13458;DHT22;6801;53.018;11.560;2023-02-22T11:56:48;10.10;87.70
13458;DHT22;6801;53.018;11.560;2023-02-22T11:59:24;10.20;87.40
13458;DHT22;6801;53.018;11.560;2023-02-22T12:01:55;10.20;87.40
13458;DHT22;6801;53.018;11.560;2023-02-22T12:05:02;10.30;87.30
13458;DHT22;6801;53.018;11.560;2023-02-22T12:07:47;10.30;87.20
13458;DHT22;6801;53.018;11.560;2023-02-22T12:10:25;10.30;87.30
13458;DHT22;6801;53.018;11.560;2023-02-22T12:13:18;10.40;87.20
13458;DHT22;6801;53.018;11.560;2023-02-22T12:15:50;10.40;87.00
13458;DHT22;6801;53.018;11.560;2023-02-22T12:18:28;10.40;87.30
13458;DHT22;6801;53.018;11.560;2023-02-22T12:20:59;10.50;87.30
13458;DHT22;6801;53.018;11.560;2023-02-22T12:23:31;10.50;87.10
13458;DHT22;6801;53.018;11.560;2023-02-22T12:26:04;10.70;86.80
13458;DHT22;6801;53.018;11.560;2023-02-22T12:28:38;10.70;86.60
13458;DHT22;6801;53.018;11.560;2023-02-22T12:31:17;10.70;86.80
13458;DHT22;6801;53.018;11.560;2023-02-22T12:33:53;10.70;86.80
13458;DHT22;6801;53.018;11.560;2023-02-22T12:36:32;10.80;86.80
13458;DHT22;6801;53.018;11.560;2023-02-22T12:39:03;10.80;86.70
13458;DHT22;6801;53.018;11.560;2023-02-22T12:41:35;10.80;86.60
13458;DHT22;6801;53.018;11.560;2023-02-22T12:44:07;10.80;86.60
13458;DHT22;6801;53.018;11.560;2023-02-22T12:46:37;10.90;86.60
13458;DHT22;6801;53.018;11.560;2023-02-22T12:49:13;10.90;86.60
13458;DHT22;6801;53.018;11.560;2023-02-22T12:51:48;11.00;86.10
13458;DHT22;6801;53.018;11.560;2023-02-22T12:54:22;11.00;86.40
13458;DHT22;6801;53.018;11.560;2023-02-22T12:56:55;11.00;86.20
13458;DHT22;6801;53.018;11.560;2023-02-22T12:59:28;11.00;86.30
13458;DHT22;6801;53.018;11.560;2023-02-22T13:01:59;11.00;86.20
13458;DHT22;6801;53.018;11.560;2023-02-22T13:04:29;11.00;86.10
13458;DHT22;6801;53.018;11.560;2023-02-22T13:07:24;11.00;86.30
13458;DHT22;6801;53.018;11.560;2023-02-22T13:12:57;11.00;85.90
13458;DHT22;6801;53.018;11.560;2023-02-22T13:15:31;11.00;86.10
13458;DHT22;6801;53.018;11.560;2023-02-22T13:18:07;11.00;85.90
13458;DHT22;6801;53.018;11.560;2023-02-22T13:20:39;11.10;85.80
13458;DHT22;6801;53.018;11.560;2023-02-22T13:23:13;11.10;85.90
13458;DHT22;6801;53.018;11.560;2023-02-22T13:25:44;11.00;85.80
13458;DHT22;6801;53.018;11.560;2023-02-22T13:28:23;11.00;85.90
13458;DHT22;6801;53.018;11.560;2023-02-22T13:31:06;11.00;85.50
13458;DHT22;6801;53.018;11.560;2023-02-22T13:33:57;11.10;85.70
13458;DHT22;6801;53.018;11.560;2023-02-22T13:36:36;11.20;85.30
13458;DHT22;6801;53.018;11.560;2023-02-22T13:39:43;11.10;85.40
13458;DHT22;6801;53.018;11.560;2023-02-22T13:42:33;11.20;85.20
13458;DHT22;6801;53.018;11.560;2023-02-22T13:51:22;11.20;85.30
13458;DHT22;6801;53.018;11.560;2023-02-22T13:54:01;11.20;85.20
13458;DHT22;6801;53.018;11.560;2023-02-22T13:56:31;11.10;85.30
13458;DHT22;6801;53.018;11.560;2023-02-22T13:58:59;11.20;85.30
13458;DHT22;6801;53.018;11.560;2023-02-22T14:01:42;11.10;85.40
13458;DHT22;6801;53.018;11.560;2023-02-22T14:04:44;11.10;85.30
13458;DHT22;6801;53.018;11.560;2023-02-22T14:10:46;11.10;85.10
13458;DHT22;6801;53.018;11.560;2023-02-22T14:13:16;11.10;85.00
13458;DHT22;6801;53.018;11.560;2023-02-22T14:16:15;11.10;85.10
13458;DHT22;6801;53.018;11.560;2023-02-22T14:18:44;11.10;85.10
13458;DHT22;6801;53.018;11.560;2023-02-22T14:21:15;11.00;85.30
13458;DHT22;6801;53.018;11.560;2023-02-22T14:23:44;11.10;85.20
13458;DHT22;6801;53.018;11.560;2023-02-22T14:26:15;11.10;84.70
13458;DHT22;6801;53.018;11.560;2023-02-22T14:28:55;11.10;84.70
13458;DHT22;6801;53.018;11.560;2023-02-22T14:31:25;11.10;84.80
13458;DHT22;6801;53.018;11.560;2023-02-22T14:34:05;11.00;84.90
13458;DHT22;6801;53.018;11.560;2023-02-22T14:36:37;11.00;85.00
13458;DHT22;6801;53.018;11.560;2023-02-22T14:39:13;11.10;84.90
13458;DHT22;6801;53.018;11.560;2023-02-22T14:41:46;11.10;84.90
13458;DHT22;6801;53.018;11.560;2023-02-22T14:44:20;11.10;84.80
13458;DHT22;6801;53.018;11.560;2023-02-22T14:46:50;11.10;84.90
13458;DHT22;6801;53.018;11.560;2023-02-22T14:49:20;11.10;84.80
13458;DHT22;6801;53.018;11.560;2023-02-22T14:51:50;11.10;84.90
13458;DHT22;6801;53.018;11.560;2023-02-22T14:54:25;11.10;84.60
13458;DHT22;6801;53.018;11.560;2023-02-22T14:57:00;11.00;84.80
13458;DHT22;6801;53.018;11.560;2023-02-22T14:59:46;11.10;84.80
13458;DHT22;6801;53.018;11.560;2023-02-22T15:02:18;11.10;84.60
13458;DHT22;6801;53.018;11.560;2023-02-22T15:04:51;11.10;84.50
13458;DHT22;6801;53.018;11.560;2023-02-22T15:07:21;11.10;84.60
13458;DHT22;6801;53.018;11.560;2023-02-22T15:10:03;11.00;84.70
13458;DHT22;6801;53.018;11.560;2023-02-22T15:12:31;11.00;84.80
13458;DHT22;6801;53.018;11.560;2023-02-22T15:15:17;11.00;84.80
13458;DHT22;6801;53.018;11.560;2023-02-22T15:17:48;11.00;84.50
13458;DHT22;6801;53.018;11.560;2023-02-22T15:20:19;11.10;84.50
13458;DHT22;6801;53.018;11.560;2023-02-22T15:22:47;11.00;84.50
13458;DHT22;6801;53.018;11.560;2023-02-22T15:25:15;11.10;84.40
13458;DHT22;6801;53.018;11.560;2023-02-22T15:27:44;11.10;84.10
13458;DHT22;6801;53.018;11.560;2023-02-22T15:30:21;11.10;84.20
13458;DHT22;6801;53.018;11.560;2023-02-22T15:32:51;11.10;84.30
13458;DHT22;6801;53.018;11.560;2023-02-22T15:35:23;11.10;84.30
13458;DHT22;6801;53.018;11.560;2023-02-22T15:37:58;11.10;84.30
13458;DHT22;6801;53.018;11.560;2023-02-22T15:40:25;11.00;84.40
13458;DHT22;6801;53.018;11.560;2023-02-22T15:42:59;11.00;84.60
13458;DHT22;6801;53.018;11.560;2023-02-22T15:45:29;11.00;84.30
13458;DHT22;6801;53.018;11.560;2023-02-22T15:47:57;11.00;84.40
13458;DHT22;6801;53.018;11.560;2023-02-22T15:50:25;11.00;84.40
13458;DHT22;6801;53.018;11.560;2023-02-22T15:52:55;11.00;84.40
13458;DHT22;6801;53.018;11.560;2023-02-22T15:55:26;11.00;84.10
13458;DHT22;6801;53.018;11.560;2023-02-22T15:57:56;11.00;84.40
13458;DHT22;6801;53.018;11.560;2023-02-22T16:00:29;11.00;84.30
13458;DHT22;6801;53.018;11.560;2023-02-22T16:03:01;11.00;84.30
13458;DHT22;6801;53.018;11.560;2023-02-22T16:05:36;10.90;84.20
13458;DHT22;6801;53.018;11.560;2023-02-22T16:08:12;11.00;84.10
13458;DHT22;6801;53.018;11.560;2023-02-22T16:10:48;10.90;84.30
13458;DHT22;6801;53.018;11.560;2023-02-22T16:13:19;10.90;84.40
13458;DHT22;6801;53.018;11.560;2023-02-22T16:15:56;10.90;84.10
13458;DHT22;6801;53.018;11.560;2023-02-22T16:18:29;10.90;84.20
13458;DHT22;6801;53.018;11.560;2023-02-22T16:20:58;10.80;84.30
13458;DHT22;6801;53.018;11.560;2023-02-22T16:23:27;10.80;84.20
13458;DHT22;6801;53.018;11.560;2023-02-22T16:26:17;10.70;84.30